createdAt,value
2023-02-15T00:00:09.100Z,75.30
2023-02-15T00:02:36.104Z,75.20
2023-02-15T00:05:03.188Z,75.20
2023-02-15T00:07:30.336Z,75.20
2023-02-15T00:09:57.318Z,75.10
2023-02-15T00:12:24.372Z,75.20
2023-02-15T00:14:51.300Z,75.20
2023-02-15T00:17:18.373Z,75.30
2023-02-15T00:19:45.413Z,75.30
2023-02-15T00:22:12.955Z,75.30
2023-02-15T00:24:40.054Z,75.40
2023-02-15T00:27:07.040Z,75.40
2023-02-15T00:29:34.089Z,75.40
2023-02-15T00:32:01.123Z,75.50
2023-02-15T00:34:29.635Z,75.50
2023-02-15T00:36:57.807Z,75.40
2023-02-15T00:39:25.319Z,75.40
2023-02-15T00:41:52.234Z,75.40
2023-02-15T00:44:19.327Z,75.40
2023-02-15T00:46:46.459Z,75.40
2023-02-15T00:49:13.638Z,75.40
2023-02-15T00:51:40.757Z,75.30
2023-02-15T00:54:08.480Z,75.30
2023-02-15T00:56:35.507Z,75.40
2023-02-15T00:59:02.845Z,75.50
2023-02-15T01:01:30.120Z,75.60
2023-02-15T01:03:57.322Z,75.60
2023-02-15T01:06:24.413Z,75.60
2023-02-15T01:08:51.342Z,75.70
2023-02-15T01:11:24.988Z,75.70
2023-02-15T01:13:55.969Z,75.70
2023-02-15T01:16:25.813Z,75.70
2023-02-15T01:18:53.354Z,75.60
2023-02-15T01:21:24.192Z,75.60
2023-02-15T01:23:51.229Z,75.70
2023-02-15T01:26:18.808Z,75.60
2023-02-15T01:28:46.342Z,75.60
2023-02-15T01:31:17.040Z,75.60
2023-02-15T01:33:47.652Z,75.70
2023-02-15T01:36:15.557Z,75.70
2023-02-15T01:38:42.704Z,75.60
2023-02-15T01:41:23.873Z,75.70
2023-02-15T01:43:56.040Z,75.80
2023-02-15T01:46:36.756Z,75.90
2023-02-15T01:49:14.406Z,76.00
2023-02-15T01:51:44.567Z,75.90
2023-02-15T01:54:32.832Z,75.90
2023-02-15T01:57:06.283Z,76.00
2023-02-15T01:59:36.200Z,76.00
2023-02-15T02:02:04.985Z,75.90
2023-02-15T02:05:03.944Z,76.00
2023-02-15T02:07:35.353Z,76.00
2023-02-15T02:10:04.323Z,75.90
2023-02-15T02:12:34.660Z,76.30
2023-02-15T02:15:02.430Z,76.00
2023-02-15T02:18:11.548Z,76.00
2023-02-15T02:21:27.854Z,76.00
2023-02-15T02:24:25.622Z,75.90
2023-02-15T02:27:34.736Z,75.90
2023-02-15T02:30:37.836Z,75.90
2023-02-15T02:33:29.596Z,75.90
2023-02-15T02:36:33.485Z,75.90
2023-02-15T02:39:28.923Z,75.90
2023-02-15T02:42:16.311Z,76.00
2023-02-15T02:44:55.048Z,76.00
2023-02-15T02:47:39.232Z,76.00
2023-02-15T02:50:10.772Z,76.10
2023-02-15T02:52:45.562Z,76.80
2023-02-15T02:55:49.595Z,76.10
2023-02-15T02:58:37.908Z,76.00
2023-02-15T03:01:21.915Z,76.00
2023-02-15T03:03:54.247Z,76.00
2023-02-15T03:06:32.242Z,76.00
2023-02-15T03:09:15.389Z,76.00
2023-02-15T03:11:45.026Z,76.00
2023-02-15T03:14:14.762Z,75.90
2023-02-15T03:16:44.923Z,75.90
2023-02-15T03:19:19.723Z,75.80
2023-02-15T03:21:59.000Z,75.80
2023-02-15T03:24:38.326Z,75.80
2023-02-15T03:27:12.789Z,75.90
2023-02-15T03:29:40.937Z,75.90
2023-02-15T03:32:12.606Z,75.90
2023-02-15T03:34:40.052Z,76.00
2023-02-15T03:37:37.576Z,75.90
2023-02-15T03:40:51.577Z,76.00
2023-02-15T03:43:25.060Z,76.00
2023-02-15T03:46:00.251Z,76.10
2023-02-15T03:48:38.440Z,76.10
2023-02-15T03:51:32.331Z,76.20
2023-02-15T03:54:04.844Z,76.20
2023-02-15T03:56:34.542Z,76.20
2023-02-15T03:59:20.359Z,76.20
2023-02-15T04:02:02.521Z,76.20
2023-02-15T04:04:44.105Z,76.20
2023-02-15T04:07:11.167Z,76.30
2023-02-15T04:09:56.477Z,76.20
2023-02-15T04:12:23.942Z,76.30
2023-02-15T04:15:09.314Z,76.50
2023-02-15T04:17:38.577Z,76.40
2023-02-15T04:20:25.193Z,76.50
2023-02-15T04:23:10.836Z,76.50
2023-02-15T04:25:38.000Z,76.60
2023-02-15T04:28:05.082Z,76.60
2023-02-15T04:30:32.124Z,76.60
2023-02-15T04:32:59.302Z,76.60
2023-02-15T04:35:26.795Z,76.50
2023-02-15T04:37:53.759Z,76.50
2023-02-15T04:40:20.954Z,76.60
2023-02-15T04:42:51.056Z,76.60
2023-02-15T04:45:18.731Z,76.60
2023-02-15T04:47:46.162Z,76.70
2023-02-15T04:50:13.401Z,76.70
2023-02-15T04:52:40.509Z,76.80
2023-02-15T04:55:08.191Z,76.90
2023-02-15T04:57:35.196Z,76.90
2023-02-15T05:00:02.330Z,76.80
2023-02-15T05:02:29.311Z,76.90
2023-02-15T05:04:56.206Z,76.80
2023-02-15T05:07:23.136Z,76.90
2023-02-15T05:09:50.777Z,76.90
2023-02-15T05:12:17.697Z,76.90
2023-02-15T05:14:44.718Z,76.90
2023-02-15T05:17:11.711Z,76.80
2023-02-15T05:19:38.736Z,76.80
2023-02-15T05:22:05.799Z,76.80
2023-02-15T05:24:51.050Z,76.80
2023-02-15T05:27:36.758Z,76.70
2023-02-15T05:30:04.510Z,76.70
2023-02-15T05:32:31.690Z,76.70
2023-02-15T05:34:58.865Z,76.70
2023-02-15T05:37:25.726Z,76.80
2023-02-15T05:39:52.761Z,76.70
2023-02-15T05:42:19.670Z,76.70
2023-02-15T05:44:46.729Z,76.70
2023-02-15T05:47:13.704Z,76.70
2023-02-15T05:49:40.914Z,76.70
2023-02-15T05:52:09.126Z,76.80
2023-02-15T05:54:36.135Z,76.80
2023-02-15T05:57:03.336Z,76.90
2023-02-15T05:59:30.461Z,77.00
2023-02-15T06:01:57.474Z,77.00
2023-02-15T06:04:24.488Z,77.00
2023-02-15T06:06:52.031Z,77.00
2023-02-15T06:09:19.345Z,77.00
2023-02-15T06:11:47.519Z,77.00
2023-02-15T06:14:14.618Z,77.10
2023-02-15T06:16:41.658Z,77.10
2023-02-15T06:19:08.693Z,77.20
2023-02-15T06:21:35.907Z,77.20
2023-02-15T06:24:03.001Z,77.20
2023-02-15T06:26:30.065Z,77.20
2023-02-15T06:28:57.187Z,77.20
2023-02-15T06:31:24.318Z,77.30
2023-02-15T06:33:51.396Z,77.30
2023-02-15T06:36:18.421Z,77.20
2023-02-15T06:38:45.472Z,77.20
2023-02-15T06:41:12.607Z,77.10
2023-02-15T06:43:41.036Z,77.20
2023-02-15T06:46:08.615Z,77.20
2023-02-15T06:48:35.779Z,77.20
2023-02-15T06:51:02.956Z,77.20
2023-02-15T06:53:30.076Z,77.20
2023-02-15T06:56:09.996Z,77.20
2023-02-15T06:58:38.955Z,77.20
2023-02-15T07:01:06.714Z,77.10
2023-02-15T07:03:34.369Z,77.00
2023-02-15T07:06:06.874Z,77.00
2023-02-15T07:08:33.960Z,77.00
2023-02-15T07:11:21.388Z,77.20
2023-02-15T07:13:48.670Z,77.30
2023-02-15T07:16:15.857Z,77.20
2023-02-15T07:18:43.090Z,77.20
2023-02-15T07:21:10.192Z,77.00
2023-02-15T07:23:39.436Z,77.00
2023-02-15T07:26:07.717Z,77.10
2023-02-15T07:28:35.828Z,77.10
2023-02-15T07:31:06.772Z,77.10
2023-02-15T07:33:35.214Z,77.30
2023-02-15T07:36:04.862Z,77.40
2023-02-15T07:38:37.537Z,77.50
2023-02-15T07:41:09.135Z,77.60
2023-02-15T07:43:39.355Z,77.60
2023-02-15T07:46:13.522Z,77.60
2023-02-15T07:48:44.150Z,77.60
2023-02-15T07:51:12.537Z,77.50
2023-02-15T07:53:40.399Z,77.50
2023-02-15T07:56:12.492Z,77.50
2023-02-15T07:58:51.743Z,77.50
2023-02-15T08:01:34.654Z,77.50
2023-02-15T08:04:02.143Z,77.40
2023-02-15T08:06:32.515Z,77.30
2023-02-15T08:08:59.821Z,77.30
2023-02-15T08:11:33.663Z,77.30
2023-02-15T08:14:07.797Z,77.20
2023-02-15T08:16:46.989Z,77.20
2023-02-15T08:19:23.640Z,77.10
2023-02-15T08:21:57.959Z,76.90
2023-02-15T08:24:29.675Z,76.90
2023-02-15T08:26:57.506Z,76.70
2023-02-15T08:29:28.305Z,76.70
2023-02-15T08:32:03.717Z,76.60
2023-02-15T08:34:34.802Z,76.60
2023-02-15T08:37:01.934Z,76.60
2023-02-15T08:39:29.686Z,76.60
2023-02-15T08:41:56.823Z,76.50
2023-02-15T08:44:23.987Z,76.60
2023-02-15T08:46:51.431Z,76.50
2023-02-15T08:49:21.954Z,76.40
2023-02-15T08:51:50.560Z,76.30
2023-02-15T08:54:21.549Z,76.40
2023-02-15T08:56:49.095Z,76.30
2023-02-15T08:59:20.794Z,76.20
2023-02-15T09:01:50.232Z,76.10
2023-02-15T09:04:17.736Z,76.00
2023-02-15T09:06:48.513Z,75.80
2023-02-15T09:09:18.510Z,75.60
2023-02-15T09:11:48.873Z,75.30
2023-02-15T09:14:20.984Z,75.20
2023-02-15T09:16:50.072Z,75.30
2023-02-15T09:19:18.931Z,75.30
2023-02-15T09:21:46.305Z,75.00
2023-02-15T09:24:16.002Z,74.90
2023-02-15T09:26:46.289Z,74.70
2023-02-15T09:29:15.624Z,75.00
2023-02-15T09:31:49.953Z,74.40
2023-02-15T09:34:20.511Z,74.30
2023-02-15T09:36:48.920Z,74.40
2023-02-15T09:39:24.802Z,74.40
2023-02-15T09:42:41.995Z,74.00
2023-02-15T09:45:40.560Z,74.20
2023-02-15T09:48:47.310Z,73.60
2023-02-15T09:52:16.277Z,73.80
2023-02-15T09:55:06.062Z,73.80
2023-02-15T09:57:54.669Z,73.40
2023-02-15T10:01:11.137Z,73.40
2023-02-15T10:03:51.751Z,73.40
2023-02-15T10:06:50.513Z,73.40
2023-02-15T10:09:47.743Z,73.50
2023-02-15T10:12:31.095Z,73.50
2023-02-15T10:15:12.532Z,73.60
2023-02-15T10:18:05.357Z,73.60
2023-02-15T10:21:00.860Z,73.80
2023-02-15T10:23:56.234Z,73.80
2023-02-15T10:26:45.442Z,73.80
2023-02-15T10:29:37.414Z,73.90
2023-02-15T10:32:24.943Z,73.80
2023-02-15T10:35:20.289Z,73.50
2023-02-15T10:38:04.783Z,73.20
2023-02-15T10:41:03.831Z,73.20
2023-02-15T10:44:21.616Z,73.10
2023-02-15T10:47:25.107Z,73.10
2023-02-15T10:50:35.213Z,72.80
2023-02-15T10:53:29.801Z,73.00
2023-02-15T10:56:21.398Z,72.70
2023-02-15T10:59:20.005Z,72.50
2023-02-15T11:02:18.783Z,72.20
2023-02-15T11:04:51.869Z,72.00
2023-02-15T11:07:34.868Z,71.90
2023-02-15T11:10:39.520Z,71.50
2023-02-15T11:13:12.709Z,71.50
2023-02-15T11:15:55.320Z,70.90
2023-02-15T11:18:28.327Z,70.90
2023-02-15T11:20:59.159Z,71.10
2023-02-15T11:23:27.377Z,71.10
2023-02-15T11:26:20.709Z,70.80
2023-02-15T11:28:56.061Z,70.70
2023-02-15T11:31:26.772Z,70.60
2023-02-15T11:34:05.786Z,70.40
2023-02-15T11:36:41.568Z,70.50
2023-02-15T11:39:19.087Z,70.20
2023-02-15T11:41:52.992Z,70.30
2023-02-15T11:44:48.377Z,70.40
2023-02-15T11:47:15.462Z,70.30
2023-02-15T11:49:42.532Z,70.30
2023-02-15T11:52:15.470Z,70.30
2023-02-15T11:54:46.437Z,70.20
2023-02-15T11:57:25.053Z,69.70
2023-02-15T12:00:01.829Z,69.60
2023-02-15T12:02:38.599Z,69.60
2023-02-15T12:05:14.564Z,70.60
2023-02-15T12:08:05.120Z,69.70
2023-02-15T12:10:48.969Z,69.70
2023-02-15T12:13:20.338Z,68.70
2023-02-15T12:15:51.467Z,68.60
2023-02-15T12:18:31.889Z,68.80
2023-02-15T12:21:04.435Z,68.90
2023-02-15T12:23:34.152Z,69.20
2023-02-15T12:26:01.544Z,70.00
2023-02-15T12:28:38.395Z,69.50
2023-02-15T12:31:38.577Z,69.70
2023-02-15T12:34:14.083Z,69.70
2023-02-15T12:36:51.720Z,68.40
2023-02-15T12:39:36.746Z,67.30
2023-02-15T12:42:17.320Z,66.10
2023-02-15T12:45:00.877Z,65.50
2023-02-15T12:47:31.008Z,64.10
2023-02-15T12:50:23.952Z,62.60
2023-02-15T12:53:08.766Z,63.80
2023-02-15T12:55:36.320Z,62.90
2023-02-15T12:58:26.021Z,60.90
2023-02-15T13:01:22.785Z,61.40
2023-02-15T13:04:03.295Z,60.10
2023-02-15T13:06:36.717Z,58.30
2023-02-15T13:09:15.232Z,56.40
2023-02-15T13:11:44.864Z,56.10
2023-02-15T13:14:30.347Z,53.70
2023-02-15T13:17:01.768Z,55.00
2023-02-15T13:19:46.050Z,52.40
2023-02-15T13:22:18.767Z,52.10
2023-02-15T13:24:54.808Z,49.90
2023-02-15T13:27:25.245Z,48.60
2023-02-15T13:30:00.622Z,48.00
2023-02-15T13:32:39.139Z,47.10
2023-02-15T13:35:09.807Z,47.30
2023-02-15T13:37:51.805Z,45.70
2023-02-15T13:41:05.563Z,46.10
2023-02-15T13:44:13.453Z,48.60
2023-02-15T13:47:01.821Z,47.50
2023-02-15T13:50:00.369Z,45.50
2023-02-15T13:52:30.759Z,45.50
2023-02-15T13:55:09.680Z,43.90
2023-02-15T13:58:08.035Z,44.20
2023-02-15T14:00:40.747Z,45.40
2023-02-15T14:03:22.535Z,43.30
2023-02-15T14:06:04.284Z,45.10
2023-02-15T14:08:44.149Z,42.90
2023-02-15T14:11:27.774Z,42.80
2023-02-15T14:14:03.753Z,43.60
2023-02-15T14:17:20.515Z,42.70
2023-02-15T14:20:21.217Z,44.40
2023-02-15T14:22:56.287Z,43.70
2023-02-15T14:25:50.696Z,41.70
2023-02-15T14:28:42.861Z,42.80
2023-02-15T14:31:13.654Z,42.00
2023-02-15T14:33:50.637Z,41.30
2023-02-15T14:36:20.915Z,41.20
2023-02-15T14:39:32.649Z,41.10
2023-02-15T14:42:16.893Z,41.50
2023-02-15T14:45:20.371Z,41.40
2023-02-15T14:48:06.186Z,41.70
2023-02-15T14:50:38.112Z,42.00
2023-02-15T14:53:33.098Z,41.40
2023-02-15T14:56:08.375Z,42.30
2023-02-15T14:58:35.288Z,41.70
2023-02-15T15:01:08.945Z,40.90
2023-02-15T15:03:36.614Z,41.10
2023-02-15T15:06:06.147Z,41.90
2023-02-15T15:08:41.315Z,40.70
2023-02-15T15:11:52.167Z,40.60
2023-02-15T15:14:34.431Z,41.30
2023-02-15T15:17:04.721Z,40.60
2023-02-15T15:19:54.021Z,40.70
2023-02-15T15:22:29.916Z,41.00
2023-02-15T15:25:00.536Z,41.30
2023-02-15T15:27:46.681Z,42.10
2023-02-15T15:30:19.997Z,42.70
2023-02-15T15:32:55.985Z,43.60
2023-02-15T15:36:06.513Z,44.20
2023-02-15T15:39:03.155Z,44.70
2023-02-15T15:42:02.194Z,46.00
2023-02-15T15:45:15.811Z,46.30
2023-02-15T15:48:01.930Z,47.00
2023-02-15T15:50:33.932Z,48.00
2023-02-15T15:53:03.752Z,48.30
2023-02-15T15:55:33.263Z,49.10
2023-02-15T15:58:07.237Z,49.30
2023-02-15T16:00:44.656Z,49.70
2023-02-15T16:03:24.351Z,50.40
2023-02-15T16:05:55.308Z,50.80
2023-02-15T16:08:34.475Z,51.20
2023-02-15T16:11:15.550Z,51.90
2023-02-15T16:13:44.107Z,52.00
2023-02-15T16:16:14.556Z,52.30
2023-02-15T16:18:43.482Z,54.80
2023-02-15T16:21:23.669Z,55.10
2023-02-15T16:24:19.853Z,55.20
2023-02-15T16:27:28.677Z,55.00
2023-02-15T16:29:55.791Z,55.70
2023-02-15T16:32:26.577Z,55.50
2023-02-15T16:35:03.170Z,56.10
2023-02-15T16:37:35.514Z,56.80
2023-02-15T16:40:03.072Z,56.80
2023-02-15T16:42:30.327Z,57.00
2023-02-15T16:45:10.129Z,57.20
2023-02-15T16:47:44.737Z,57.50
2023-02-15T16:50:22.019Z,57.80
2023-02-15T16:52:49.104Z,58.40
2023-02-15T16:55:25.789Z,58.20
2023-02-15T16:57:59.978Z,58.70
2023-02-15T17:00:35.475Z,58.70
2023-02-15T17:03:07.454Z,58.70
2023-02-15T17:06:01.851Z,59.20
2023-02-15T17:09:06.895Z,59.70
2023-02-15T17:11:43.538Z,59.60
2023-02-15T17:14:10.955Z,59.60
2023-02-15T17:16:50.682Z,59.50
2023-02-15T17:19:54.726Z,60.00
2023-02-15T17:22:26.111Z,60.00
2023-02-15T17:25:01.725Z,60.30
2023-02-15T17:27:32.728Z,60.80
2023-02-15T17:30:13.968Z,60.70
2023-02-15T17:32:59.082Z,60.60
2023-02-15T17:35:28.872Z,61.00
2023-02-15T17:38:20.959Z,61.00
2023-02-15T17:40:48.307Z,61.10
2023-02-15T17:43:15.221Z,60.90
2023-02-15T17:45:49.338Z,61.40
2023-02-15T17:48:32.912Z,62.40
2023-02-15T17:51:03.928Z,62.10
2023-02-15T17:53:31.754Z,61.90
2023-02-15T17:55:59.469Z,62.80
2023-02-15T17:58:26.489Z,61.80
2023-02-15T18:01:16.428Z,61.90
2023-02-15T18:04:09.852Z,62.10
2023-02-15T18:06:58.215Z,61.90
2023-02-15T18:09:44.578Z,62.10
2023-02-15T18:12:21.495Z,62.20
2023-02-15T18:14:50.043Z,62.40
2023-02-15T18:17:18.554Z,62.30
2023-02-15T18:19:46.780Z,62.50
2023-02-15T18:22:18.906Z,62.70
2023-02-15T18:24:47.999Z,63.00
2023-02-15T18:27:16.824Z,63.10
2023-02-15T18:29:43.968Z,63.40
2023-02-15T18:32:19.940Z,63.30
2023-02-15T18:34:48.680Z,63.60
2023-02-15T18:37:19.966Z,63.50
2023-02-15T18:39:49.916Z,63.90
2023-02-15T18:42:35.142Z,64.00
2023-02-15T18:45:33.212Z,64.30
2023-02-15T18:48:00.659Z,64.70
2023-02-15T18:50:32.988Z,65.00
2023-02-15T18:53:00.175Z,65.50
2023-02-15T18:55:28.413Z,65.50
2023-02-15T18:57:57.359Z,65.80
2023-02-15T19:00:34.914Z,66.00
2023-02-15T19:03:02.881Z,66.20
2023-02-15T19:05:31.085Z,65.90
2023-02-15T19:08:00.311Z,65.60
2023-02-15T19:10:30.555Z,65.40
2023-02-15T19:12:58.272Z,65.20
2023-02-15T19:15:30.385Z,65.10
2023-02-15T19:17:57.544Z,65.10
2023-02-15T19:20:41.737Z,64.80
2023-02-15T19:23:22.583Z,64.80
2023-02-15T19:25:51.817Z,65.00
2023-02-15T19:28:32.767Z,64.80
2023-02-15T19:30:59.919Z,65.00
2023-02-15T19:33:27.217Z,64.90
2023-02-15T19:35:57.473Z,65.00
2023-02-15T19:38:30.707Z,65.00
2023-02-15T19:41:06.212Z,65.60
2023-02-15T19:43:35.156Z,65.90
2023-02-15T19:46:02.447Z,65.80
2023-02-15T19:48:29.648Z,65.70
2023-02-15T19:50:57.067Z,65.70
2023-02-15T19:53:27.781Z,66.10
2023-02-15T19:55:55.323Z,66.30
2023-02-15T19:58:22.484Z,66.10
2023-02-15T20:00:51.945Z,66.10
2023-02-15T20:03:19.232Z,66.00
2023-02-15T20:05:46.926Z,66.00
2023-02-15T20:08:22.581Z,66.10
2023-02-15T20:10:50.280Z,66.20
2023-02-15T20:13:19.580Z,66.10
2023-02-15T20:15:47.310Z,66.10
2023-02-15T20:18:14.429Z,66.20
2023-02-15T20:20:49.799Z,66.30
2023-02-15T20:23:24.000Z,66.40
2023-02-15T20:25:51.150Z,66.40
2023-02-15T20:28:22.218Z,66.40
2023-02-15T20:30:50.270Z,66.50
2023-02-15T20:33:19.142Z,66.50
2023-02-15T20:35:50.348Z,66.60
2023-02-15T20:38:20.682Z,66.90
2023-02-15T20:41:06.521Z,67.20
2023-02-15T20:43:34.746Z,68.10
2023-02-15T20:46:03.076Z,67.10
2023-02-15T20:48:30.417Z,67.30
2023-02-15T20:51:00.590Z,67.40
2023-02-15T20:53:29.243Z,67.40
2023-02-15T20:55:56.942Z,67.50
2023-02-15T20:58:28.179Z,67.60
2023-02-15T21:00:58.135Z,67.60
2023-02-15T21:03:30.886Z,67.60
2023-02-15T21:05:59.022Z,67.60
2023-02-15T21:08:26.717Z,67.60
2023-02-15T21:10:54.616Z,67.50
2023-02-15T21:13:30.768Z,67.50
2023-02-15T21:15:59.110Z,67.50
2023-02-15T21:18:33.514Z,67.70
2023-02-15T21:21:05.324Z,67.90
2023-02-15T21:23:39.620Z,67.90
2023-02-15T21:26:14.416Z,68.10
2023-02-15T21:28:41.956Z,68.40
2023-02-15T21:31:22.324Z,68.90
2023-02-15T21:33:49.585Z,70.10
2023-02-15T21:36:23.932Z,68.90
2023-02-15T21:38:53.636Z,69.20
2023-02-15T21:41:42.463Z,69.10
2023-02-15T21:44:41.134Z,69.10
2023-02-15T21:47:42.703Z,69.00
2023-02-15T21:50:36.272Z,68.90
2023-02-15T21:53:05.646Z,69.10
2023-02-15T21:55:33.230Z,70.00
2023-02-15T21:58:01.130Z,70.00
2023-02-15T22:00:28.710Z,70.00
2023-02-15T22:02:58.804Z,69.60
2023-02-15T22:05:31.379Z,69.70
2023-02-15T22:08:00.730Z,69.90
2023-02-15T22:10:31.501Z,70.00
2023-02-15T22:13:01.563Z,70.10
2023-02-15T22:15:35.337Z,70.60
2023-02-15T22:18:03.419Z,70.70
2023-02-15T22:20:30.347Z,70.60
2023-02-15T22:22:57.234Z,70.30
2023-02-15T22:25:26.005Z,70.40
2023-02-15T22:27:54.639Z,70.20
2023-02-15T22:30:32.144Z,70.00
2023-02-15T22:33:00.451Z,70.30
2023-02-15T22:35:30.991Z,70.30
2023-02-15T22:37:58.445Z,70.40
2023-02-15T22:40:32.820Z,70.40
2023-02-15T22:43:05.622Z,70.30
2023-02-15T22:45:36.190Z,70.40
2023-02-15T22:48:03.452Z,70.30
2023-02-15T22:50:33.512Z,70.50
2023-02-15T22:53:02.340Z,70.60
2023-02-15T22:55:36.709Z,70.80
2023-02-15T22:58:04.666Z,71.10
2023-02-15T23:00:40.208Z,71.30
2023-02-15T23:03:26.020Z,71.40
2023-02-15T23:05:53.303Z,71.10
2023-02-15T23:08:20.944Z,71.00
2023-02-15T23:10:55.657Z,71.10
2023-02-15T23:13:29.425Z,71.30
2023-02-15T23:16:02.777Z,71.20
2023-02-15T23:18:42.373Z,71.30
2023-02-15T23:21:31.799Z,71.20
2023-02-15T23:24:22.569Z,71.00
2023-02-15T23:26:50.459Z,70.70
2023-02-15T23:29:23.503Z,70.50
2023-02-15T23:31:53.640Z,70.70
2023-02-15T23:34:30.193Z,70.50
2023-02-15T23:36:57.674Z,70.50
2023-02-15T23:39:46.329Z,70.30
2023-02-15T23:42:15.283Z,70.50
2023-02-15T23:44:44.892Z,70.30
2023-02-15T23:47:46.692Z,70.40
2023-02-15T23:50:19.804Z,70.40
2023-02-15T23:52:47.374Z,70.30
2023-02-15T23:55:15.878Z,70.40
2023-02-15T23:57:43.877Z,70.70
